sensor_id;sensor_type;location;lat;lon;timestamp;pressure;altitude;pressure_sealevel;temperature;humidity
9676;BME280;4876;42.656;23.292;2023-04-01T00:00:34;93485.09;;;11.63;64.11
9676;BME280;4876;42.656;23.292;2023-04-01T00:03:01;93491.25;;;11.55;64.55
9676;BME280;4876;42.656;23.292;2023-04-01T00:05:28;93483.09;;;11.60;64.36
9676;BME280;4876;42.656;23.292;2023-04-01T00:07:56;93494.28;;;11.69;64.17
9676;BME280;4876;42.656;23.292;2023-04-01T00:10:22;93483.69;;;11.53;64.54
9676;BME280;4876;42.656;23.292;2023-04-01T00:12:49;93487.59;;;11.59;64.30
9676;BME280;4876;42.656;23.292;2023-04-01T00:15:16;93488.38;;;11.60;64.79
9676;BME280;4876;42.656;23.292;2023-04-01T00:17:43;93483.59;;;11.50;65.13
9676;BME280;4876;42.656;23.292;2023-04-01T00:20:11;93498.69;;;11.37;65.70
9676;BME280;4876;42.656;23.292;2023-04-01T00:22:42;93499.19;;;11.43;65.80
9676;BME280;4876;42.656;23.292;2023-04-01T00:25:14;93502.47;;;11.52;65.59
9676;BME280;4876;42.656;23.292;2023-04-01T00:27:49;93503.78;;;11.46;65.92
9676;BME280;4876;42.656;23.292;2023-04-01T00:30:16;93478.28;;;11.06;66.42
9676;BME280;4876;42.656;23.292;2023-04-01T00:32:43;93508.41;;;11.09;67.09
9676;BME280;4876;42.656;23.292;2023-04-01T00:35:12;93500.44;;;10.81;67.29
9676;BME280;4876;42.656;23.292;2023-04-01T00:37:47;93486.78;;;10.63;68.68
9676;BME280;4876;42.656;23.292;2023-04-01T00:40:30;93469.56;;;10.65;68.96
9676;BME280;4876;42.656;23.292;2023-04-01T00:43:01;93478.00;;;10.59;68.60
9676;BME280;4876;42.656;23.292;2023-04-01T00:45:32;93477.03;;;10.51;68.42
9676;BME280;4876;42.656;23.292;2023-04-01T00:48:02;93466.06;;;10.37;69.70
9676;BME280;4876;42.656;23.292;2023-04-01T00:50:32;93476.16;;;10.47;69.54
9676;BME280;4876;42.656;23.292;2023-04-01T00:53:01;93476.16;;;10.47;69.20
9676;BME280;4876;42.656;23.292;2023-04-01T00:55:33;93441.56;;;10.33;68.44
9676;BME280;4876;42.656;23.292;2023-04-01T00:58:05;93451.53;;;10.39;68.64
9676;BME280;4876;42.656;23.292;2023-04-01T01:00:36;93455.31;;;10.17;70.49
9676;BME280;4876;42.656;23.292;2023-04-01T01:03:03;93381.00;;;9.80;70.76
9676;BME280;4876;42.656;23.292;2023-04-01T01:05:44;93439.56;;;10.42;70.03
9676;BME280;4876;42.656;23.292;2023-04-01T01:08:21;93434.66;;;10.40;69.44
9676;BME280;4876;42.656;23.292;2023-04-01T01:11:03;93433.69;;;10.33;70.26
9676;BME280;4876;42.656;23.292;2023-04-01T01:13:36;93426.44;;;10.42;69.27
9676;BME280;4876;42.656;23.292;2023-04-01T01:16:10;93420.19;;;10.46;69.17
9676;BME280;4876;42.656;23.292;2023-04-01T01:18:46;93424.34;;;10.47;69.21
9676;BME280;4876;42.656;23.292;2023-04-01T01:21:38;93424.25;;;10.44;69.11
9676;BME280;4876;42.656;23.292;2023-04-01T01:24:17;93419.44;;;10.34;69.35
9676;BME280;4876;42.656;23.292;2023-04-01T01:26:59;93407.41;;;10.33;68.61
9676;BME280;4876;42.656;23.292;2023-04-01T01:30:06;93408.81;;;10.30;68.88
9676;BME280;4876;42.656;23.292;2023-04-01T01:32:55;93392.28;;;10.30;68.71
9676;BME280;4876;42.656;23.292;2023-04-01T01:35:30;93396.00;;;10.29;67.09
9676;BME280;4876;42.656;23.292;2023-04-01T01:38:02;93401.59;;;10.27;67.38
9676;BME280;4876;42.656;23.292;2023-04-01T01:40:31;93402.13;;;10.08;67.93
9676;BME280;4876;42.656;23.292;2023-04-01T01:43:08;93393.16;;;10.34;66.31
9676;BME280;4876;42.656;23.292;2023-04-01T01:45:44;93403.22;;;10.19;66.84
9676;BME280;4876;42.656;23.292;2023-04-01T01:48:13;93399.31;;;10.38;66.47
9676;BME280;4876;42.656;23.292;2023-04-01T01:50:47;93392.44;;;10.61;64.31
9676;BME280;4876;42.656;23.292;2023-04-01T01:53:15;93385.22;;;10.70;63.12
9676;BME280;4876;42.656;23.292;2023-04-01T01:55:43;93374.53;;;10.79;63.09
9676;BME280;4876;42.656;23.292;2023-04-01T01:58:14;93376.66;;;10.73;63.26
9676;BME280;4876;42.656;23.292;2023-04-01T02:00:46;93397.47;;;10.66;64.09
9676;BME280;4876;42.656;23.292;2023-04-01T02:03:14;93387.66;;;10.51;64.01
9676;BME280;4876;42.656;23.292;2023-04-01T02:05:41;93376.41;;;10.78;63.35
9676;BME280;4876;42.656;23.292;2023-04-01T02:08:13;93376.31;;;11.03;62.42
9676;BME280;4876;42.656;23.292;2023-04-01T02:10:43;93353.06;;;11.05;60.52
9676;BME280;4876;42.656;23.292;2023-04-01T02:13:18;93358.03;;;11.22;60.58
9676;BME280;4876;42.656;23.292;2023-04-01T02:15:50;93365.94;;;11.22;60.97
9676;BME280;4876;42.656;23.292;2023-04-01T02:18:22;93360.06;;;11.13;60.89
9676;BME280;4876;42.656;23.292;2023-04-01T02:20:50;93363.97;;;11.19;61.19
9676;BME280;4876;42.656;23.292;2023-04-01T02:23:19;93355.63;;;11.17;60.36
9676;BME280;4876;42.656;23.292;2023-04-01T02:25:46;93352.78;;;11.22;60.63
9676;BME280;4876;42.656;23.292;2023-04-01T02:28:14;93363.97;;;11.19;61.04
9676;BME280;4876;42.656;23.292;2023-04-01T02:30:47;93379.91;;;11.11;61.85
9676;BME280;4876;42.656;23.292;2023-04-01T02:33:15;93374.97;;;11.09;62.47
9676;BME280;4876;42.656;23.292;2023-04-01T02:35:43;93360.63;;;10.78;62.51
9676;BME280;4876;42.656;23.292;2023-04-01T02:38:10;93374.03;;;11.01;62.47
9676;BME280;4876;42.656;23.292;2023-04-01T02:40:45;93368.47;;;11.19;61.64
9676;BME280;4876;42.656;23.292;2023-04-01T02:43:12;93367.56;;;11.27;60.16
9676;BME280;4876;42.656;23.292;2023-04-01T02:45:39;93367.03;;;11.21;60.80
9676;BME280;4876;42.656;23.292;2023-04-01T02:48:06;93375.56;;;11.30;60.72
9676;BME280;4876;42.656;23.292;2023-04-01T02:50:32;93376.75;;;11.05;61.03
9676;BME280;4876;42.656;23.292;2023-04-01T02:53:00;93359.63;;;11.11;60.79
9676;BME280;4876;42.656;23.292;2023-04-01T02:55:28;93376.44;;;11.22;60.33
9676;BME280;4876;42.656;23.292;2023-04-01T02:57:57;93389.31;;;11.40;60.55
9676;BME280;4876;42.656;23.292;2023-04-01T03:00:23;93389.47;;;11.31;60.21
9676;BME280;4876;42.656;23.292;2023-04-01T03:02:50;93406.63;;;11.41;60.42
9676;BME280;4876;42.656;23.292;2023-04-01T03:05:17;93396.44;;;11.55;60.33
9676;BME280;4876;42.656;23.292;2023-04-01T03:07:44;93400.53;;;11.37;60.80
9676;BME280;4876;42.656;23.292;2023-04-01T03:10:11;93400.06;;;11.19;61.14
9676;BME280;4876;42.656;23.292;2023-04-01T03:12:38;93390.84;;;10.85;61.68
9676;BME280;4876;42.656;23.292;2023-04-01T03:15:08;93397.38;;;11.03;61.78
9676;BME280;4876;42.656;23.292;2023-04-01T03:17:36;93393.44;;;10.97;63.05
9676;BME280;4876;42.656;23.292;2023-04-01T03:20:03;93394.09;;;11.06;64.42
9676;BME280;4876;42.656;23.292;2023-04-01T03:22:30;93401.56;;;10.92;65.20
9676;BME280;4876;42.656;23.292;2023-04-01T03:24:57;93410.19;;;10.76;65.81
9676;BME280;4876;42.656;23.292;2023-04-01T03:27:24;93410.81;;;10.73;65.30
9676;BME280;4876;42.656;23.292;2023-04-01T03:29:51;93395.75;;;10.98;64.22
9676;BME280;4876;42.656;23.292;2023-04-01T03:32:19;93414.28;;;11.18;64.86
9676;BME280;4876;42.656;23.292;2023-04-01T03:34:46;93408.09;;;10.82;66.22
9676;BME280;4876;42.656;23.292;2023-04-01T03:37:12;93394.75;;;11.03;64.12
9676;BME280;4876;42.656;23.292;2023-04-01T03:39:39;93397.19;;;10.96;66.44
9676;BME280;4876;42.656;23.292;2023-04-01T03:42:06;93375.75;;;11.10;65.87
9676;BME280;4876;42.656;23.292;2023-04-01T03:44:33;93365.25;;;10.82;68.51
9676;BME280;4876;42.656;23.292;2023-04-01T03:47:00;93363.19;;;10.75;70.00
9676;BME280;4876;42.656;23.292;2023-04-01T03:49:28;93348.41;;;10.70;69.01
9676;BME280;4876;42.656;23.292;2023-04-01T03:51:57;93328.69;;;10.64;70.46
9676;BME280;4876;42.656;23.292;2023-04-01T03:54:24;93330.69;;;10.55;71.47
9676;BME280;4876;42.656;23.292;2023-04-01T03:56:51;93321.72;;;10.56;70.90
9676;BME280;4876;42.656;23.292;2023-04-01T03:59:17;93311.00;;;10.49;71.94
9676;BME280;4876;42.656;23.292;2023-04-01T04:01:46;93296.28;;;10.60;71.86
9676;BME280;4876;42.656;23.292;2023-04-01T04:04:13;93302.84;;;10.66;70.71
9676;BME280;4876;42.656;23.292;2023-04-01T04:06:41;93295.91;;;10.46;71.81
9676;BME280;4876;42.656;23.292;2023-04-01T04:09:08;93295.94;;;10.62;72.88
9676;BME280;4876;42.656;23.292;2023-04-01T04:11:34;93270.38;;;10.74;69.01
9676;BME280;4876;42.656;23.292;2023-04-01T04:14:01;93269.13;;;10.84;66.88
9676;BME280;4876;42.656;23.292;2023-04-01T04:16:28;93269.22;;;10.88;67.03
9676;BME280;4876;42.656;23.292;2023-04-01T04:18:55;93273.78;;;10.91;66.50
9676;BME280;4876;42.656;23.292;2023-04-01T04:21:22;93268.69;;;10.82;69.46
9676;BME280;4876;42.656;23.292;2023-04-01T04:23:50;93270.38;;;10.74;69.82
9676;BME280;4876;42.656;23.292;2023-04-01T04:26:17;93267.44;;;10.92;70.09
9676;BME280;4876;42.656;23.292;2023-04-01T04:28:44;93263.97;;;11.03;65.82
9676;BME280;4876;42.656;23.292;2023-04-01T04:31:11;93261.47;;;10.79;67.33
9676;BME280;4876;42.656;23.292;2023-04-01T04:33:37;93262.22;;;10.79;68.91
9676;BME280;4876;42.656;23.292;2023-04-01T04:36:05;93262.69;;;10.82;69.87
9676;BME280;4876;42.656;23.292;2023-04-01T04:38:32;93267.31;;;10.72;70.45
9676;BME280;4876;42.656;23.292;2023-04-01T04:41:00;93251.28;;;10.34;72.31
9676;BME280;4876;42.656;23.292;2023-04-01T04:43:30;93248.59;;;10.46;71.95
9676;BME280;4876;42.656;23.292;2023-04-01T04:45:56;93237.09;;;10.66;70.18
9676;BME280;4876;42.656;23.292;2023-04-01T04:48:23;93229.84;;;10.75;69.96
9676;BME280;4876;42.656;23.292;2023-04-01T04:50:50;93244.75;;;10.71;69.37
9676;BME280;4876;42.656;23.292;2023-04-01T04:53:18;93242.31;;;10.78;68.44
9676;BME280;4876;42.656;23.292;2023-04-01T04:55:45;93224.78;;;10.55;67.69
9676;BME280;4876;42.656;23.292;2023-04-01T04:58:14;93233.91;;;10.73;68.00
9676;BME280;4876;42.656;23.292;2023-04-01T05:00:41;93236.91;;;10.87;67.98
9676;BME280;4876;42.656;23.292;2023-04-01T05:03:09;93232.88;;;10.77;67.44
9676;BME280;4876;42.656;23.292;2023-04-01T05:05:37;93211.69;;;10.42;67.07
9676;BME280;4876;42.656;23.292;2023-04-01T05:08:13;93235.09;;;10.75;66.49
9676;BME280;4876;42.656;23.292;2023-04-01T05:10:48;93225.94;;;10.69;65.65
9676;BME280;4876;42.656;23.292;2023-04-01T05:13:16;93209.25;;;10.21;66.92
9676;BME280;4876;42.656;23.292;2023-04-01T05:15:43;93227.38;;;10.39;66.90
9676;BME280;4876;42.656;23.292;2023-04-01T05:18:13;93204.34;;;10.48;67.48
9676;BME280;4876;42.656;23.292;2023-04-01T05:20:48;93193.28;;;10.70;67.28
9676;BME280;4876;42.656;23.292;2023-04-01T05:23:19;93190.56;;;10.83;66.03
9676;BME280;4876;42.656;23.292;2023-04-01T05:25:47;93196.44;;;10.48;68.46
9676;BME280;4876;42.656;23.292;2023-04-01T05:28:18;93172.22;;;10.55;67.57
9676;BME280;4876;42.656;23.292;2023-04-01T05:30:48;93183.88;;;10.69;65.75
9676;BME280;4876;42.656;23.292;2023-04-01T05:33:18;93171.91;;;10.56;67.13
9676;BME280;4876;42.656;23.292;2023-04-01T05:35:45;93184.53;;;10.66;68.30
9676;BME280;4876;42.656;23.292;2023-04-01T05:38:12;93189.03;;;11.29;67.24
9676;BME280;4876;42.656;23.292;2023-04-01T05:40:42;93180.41;;;11.99;64.88
9676;BME280;4876;42.656;23.292;2023-04-01T05:43:09;93199.84;;;12.52;63.74
9676;BME280;4876;42.656;23.292;2023-04-01T05:45:37;93191.06;;;12.25;63.29
9676;BME280;4876;42.656;23.292;2023-04-01T05:48:04;93197.69;;;12.58;62.95
9676;BME280;4876;42.656;23.292;2023-04-01T05:50:31;93196.13;;;12.76;60.06
9676;BME280;4876;42.656;23.292;2023-04-01T05:52:58;93172.84;;;12.59;60.59
9676;BME280;4876;42.656;23.292;2023-04-01T05:55:25;93189.34;;;13.21;59.05
9676;BME280;4876;42.656;23.292;2023-04-01T05:57:52;93186.38;;;13.49;59.13
9676;BME280;4876;42.656;23.292;2023-04-01T06:00:20;93164.63;;;13.10;57.03
9676;BME280;4876;42.656;23.292;2023-04-01T06:02:48;93173.47;;;13.44;57.83
9676;BME280;4876;42.656;23.292;2023-04-01T06:05:18;93187.91;;;13.50;56.43
9676;BME280;4876;42.656;23.292;2023-04-01T06:07:45;93174.34;;;13.52;55.73
9676;BME280;4876;42.656;23.292;2023-04-01T06:10:14;93195.94;;;13.57;55.57
9676;BME280;4876;42.656;23.292;2023-04-01T06:13:00;93173.63;;;13.05;56.60
9676;BME280;4876;42.656;23.292;2023-04-01T06:15:36;93193.03;;;13.39;56.09
9676;BME280;4876;42.656;23.292;2023-04-01T06:18:30;93185.75;;;13.33;58.20
9676;BME280;4876;42.656;23.292;2023-04-01T06:21:07;93181.44;;;13.47;56.67
9676;BME280;4876;42.656;23.292;2023-04-01T06:23:50;93192.31;;;13.69;56.99
9676;BME280;4876;42.656;23.292;2023-04-01T06:26:30;93170.56;;;13.26;57.07
9676;BME280;4876;42.656;23.292;2023-04-01T06:29:22;93183.28;;;13.70;55.30
9676;BME280;4876;42.656;23.292;2023-04-01T06:35:14;93167.06;;;14.01;55.01
9676;BME280;4876;42.656;23.292;2023-04-01T06:38:17;93148.94;;;13.70;55.16
9676;BME280;4876;42.656;23.292;2023-04-01T06:41:00;93141.03;;;13.43;53.45
9676;BME280;4876;42.656;23.292;2023-04-01T06:43:40;93142.06;;;13.35;54.42
9676;BME280;4876;42.656;23.292;2023-04-01T06:46:18;93141.69;;;13.37;54.81
9676;BME280;4876;42.656;23.292;2023-04-01T06:49:00;93147.56;;;13.53;55.45
9676;BME280;4876;42.656;23.292;2023-04-01T06:51:38;93156.25;;;13.54;55.04
9676;BME280;4876;42.656;23.292;2023-04-01T06:54:11;93137.97;;;13.41;53.94
9676;BME280;4876;42.656;23.292;2023-04-01T06:56:41;93128.13;;;13.38;54.02
9676;BME280;4876;42.656;23.292;2023-04-01T06:59:15;93131.28;;;13.21;54.08
9676;BME280;4876;42.656;23.292;2023-04-01T07:01:45;93122.38;;;13.06;54.71
9676;BME280;4876;42.656;23.292;2023-04-01T07:04:15;93122.88;;;13.15;54.99
9676;BME280;4876;42.656;23.292;2023-04-01T07:06:50;93155.84;;;13.02;55.93
9676;BME280;4876;42.656;23.292;2023-04-01T07:09:20;93147.16;;;13.02;56.17
9676;BME280;4876;42.656;23.292;2023-04-01T07:11:50;93123.56;;;12.86;57.23
9676;BME280;4876;42.656;23.292;2023-04-01T07:14:22;93109.56;;;12.59;58.02
9676;BME280;4876;42.656;23.292;2023-04-01T07:16:54;93121.81;;;12.71;58.83
9676;BME280;4876;42.656;23.292;2023-04-01T07:19:26;93124.16;;;12.76;58.64
9676;BME280;4876;42.656;23.292;2023-04-01T07:22:02;93137.53;;;12.86;58.99
9676;BME280;4876;42.656;23.292;2023-04-01T07:24:33;93146.34;;;12.98;58.14
9676;BME280;4876;42.656;23.292;2023-04-01T07:27:00;93137.28;;;12.72;59.16
9676;BME280;4876;42.656;23.292;2023-04-01T07:29:27;93145.56;;;13.20;58.40
9676;BME280;4876;42.656;23.292;2023-04-01T07:32:07;93125.66;;;13.00;59.96
9676;BME280;4876;42.656;23.292;2023-04-01T07:34:47;93130.59;;;13.01;58.43
9676;BME280;4876;42.656;23.292;2023-04-01T07:37:24;93146.00;;;13.22;57.95
9676;BME280;4876;42.656;23.292;2023-04-01T07:39:59;93142.47;;;13.37;57.60
9676;BME280;4876;42.656;23.292;2023-04-01T07:42:35;93131.06;;;13.33;57.14
9676;BME280;4876;42.656;23.292;2023-04-01T07:45:14;93135.75;;;13.43;58.70
9676;BME280;4876;42.656;23.292;2023-04-01T07:47:54;93134.16;;;13.39;57.86
9676;BME280;4876;42.656;23.292;2023-04-01T07:50:27;93123.84;;;13.57;57.81
9676;BME280;4876;42.656;23.292;2023-04-01T07:53:06;93122.84;;;13.38;57.97
9676;BME280;4876;42.656;23.292;2023-04-01T07:55:40;93123.19;;;13.63;58.08
9676;BME280;4876;42.656;23.292;2023-04-01T07:58:14;93126.63;;;13.67;58.10
9676;BME280;4876;42.656;23.292;2023-04-01T08:00:48;93127.50;;;13.79;58.06
9676;BME280;4876;42.656;23.292;2023-04-01T08:03:31;93104.00;;;13.40;59.64
9676;BME280;4876;42.656;23.292;2023-04-01T08:06:06;93122.03;;;13.34;59.28
9676;BME280;4876;42.656;23.292;2023-04-01T08:08:47;93089.34;;;13.42;58.68
9676;BME280;4876;42.656;23.292;2023-04-01T08:11:28;93078.09;;;13.49;58.67
9676;BME280;4876;42.656;23.292;2023-04-01T08:14:05;93092.78;;;13.77;58.39
9676;BME280;4876;42.656;23.292;2023-04-01T08:16:42;93090.66;;;13.89;58.04
9676;BME280;4876;42.656;23.292;2023-04-01T08:19:19;93078.72;;;13.69;57.97
9676;BME280;4876;42.656;23.292;2023-04-01T08:21:52;93078.63;;;13.95;57.43
9676;BME280;4876;42.656;23.292;2023-04-01T08:24:27;93008.91;;;13.70;56.58
9676;BME280;4876;42.656;23.292;2023-04-01T08:26:58;93057.63;;;14.06;56.62
9676;BME280;4876;42.656;23.292;2023-04-01T08:29:30;93052.94;;;14.30;57.15
9676;BME280;4876;42.656;23.292;2023-04-01T08:32:05;93026.00;;;14.58;56.13
9676;BME280;4876;42.656;23.292;2023-04-01T08:34:36;93022.09;;;14.92;56.11
9676;BME280;4876;42.656;23.292;2023-04-01T08:37:05;93018.41;;;15.15;53.99
9676;BME280;4876;42.656;23.292;2023-04-01T08:39:37;93018.06;;;15.16;54.64
9676;BME280;4876;42.656;23.292;2023-04-01T08:42:23;93008.66;;;15.26;53.73
9676;BME280;4876;42.656;23.292;2023-04-01T08:45:15;93013.63;;;15.38;52.67
9676;BME280;4876;42.656;23.292;2023-04-01T08:48:15;93012.56;;;15.53;53.23
9676;BME280;4876;42.656;23.292;2023-04-01T08:57:14;93009.19;;;15.60;51.74
9676;BME280;4876;42.656;23.292;2023-04-01T08:59:52;93008.78;;;15.54;52.16
9676;BME280;4876;42.656;23.292;2023-04-01T09:02:45;93009.94;;;15.60;49.99
9676;BME280;4876;42.656;23.292;2023-04-01T09:05:38;93014.56;;;15.78;51.31
9676;BME280;4876;42.656;23.292;2023-04-01T09:08:21;93004.38;;;15.91;50.98
9676;BME280;4876;42.656;23.292;2023-04-01T09:11:06;93002.50;;;16.05;51.15
9676;BME280;4876;42.656;23.292;2023-04-01T09:14:12;93013.16;;;16.37;49.02
9676;BME280;4876;42.656;23.292;2023-04-01T09:17:09;92998.75;;;16.42;47.76
9676;BME280;4876;42.656;23.292;2023-04-01T09:19:50;93004.06;;;16.42;48.27
9676;BME280;4876;42.656;23.292;2023-04-01T09:22:32;92995.75;;;16.47;46.86
9676;BME280;4876;42.656;23.292;2023-04-01T09:25:30;92996.09;;;16.38;48.09
9676;BME280;4876;42.656;23.292;2023-04-01T09:28:10;92983.22;;;16.55;44.65
9676;BME280;4876;42.656;23.292;2023-04-01T09:31:04;92969.19;;;16.65;43.91
9676;BME280;4876;42.656;23.292;2023-04-01T09:34:13;92969.19;;;16.79;45.15
9676;BME280;4876;42.656;23.292;2023-04-01T09:36:45;92958.09;;;17.20;42.62
9676;BME280;4876;42.656;23.292;2023-04-01T09:39:26;92961.81;;;17.40;41.40
9676;BME280;4876;42.656;23.292;2023-04-01T09:42:21;92958.00;;;17.48;41.16
9676;BME280;4876;42.656;23.292;2023-04-01T09:44:58;92934.75;;;17.63;40.67
9676;BME280;4876;42.656;23.292;2023-04-01T09:47:42;92940.84;;;17.60;41.85
9676;BME280;4876;42.656;23.292;2023-04-01T09:50:30;92919.47;;;17.82;39.62
9676;BME280;4876;42.656;23.292;2023-04-01T09:53:20;92910.38;;;17.83;38.33
9676;BME280;4876;42.656;23.292;2023-04-01T09:56:38;92913.09;;;18.24;38.27
9676;BME280;4876;42.656;23.292;2023-04-01T09:59:42;92918.34;;;18.79;37.06
9676;BME280;4876;42.656;23.292;2023-04-01T10:05:51;92904.69;;;18.33;42.33
9676;BME280;4876;42.656;23.292;2023-04-01T10:15:07;92907.06;;;17.57;42.42
9676;BME280;4876;42.656;23.292;2023-04-01T10:21:13;92880.75;;;17.81;43.13
9676;BME280;4876;42.656;23.292;2023-04-01T10:27:16;92883.56;;;18.11;43.44
9676;BME280;4876;42.656;23.292;2023-04-01T10:30:13;92886.75;;;17.92;42.85
9676;BME280;4876;42.656;23.292;2023-04-01T10:39:38;92838.75;;;18.51;39.05
9676;BME280;4876;42.656;23.292;2023-04-01T10:42:34;92851.44;;;18.74;38.00
9676;BME280;4876;42.656;23.292;2023-04-01T10:45:34;92861.31;;;18.36;38.21
9676;BME280;4876;42.656;23.292;2023-04-01T10:48:19;92854.28;;;18.15;41.31
9676;BME280;4876;42.656;23.292;2023-04-01T10:51:22;92841.94;;;17.87;38.53
9676;BME280;4876;42.656;23.292;2023-04-01T10:54:16;92836.63;;;17.87;38.97
9676;BME280;4876;42.656;23.292;2023-04-01T10:56:53;92845.56;;;18.07;38.91
9676;BME280;4876;42.656;23.292;2023-04-01T11:00:02;92831.53;;;17.51;43.84
9676;BME280;4876;42.656;23.292;2023-04-01T11:06:24;92821.03;;;17.30;43.92
9676;BME280;4876;42.656;23.292;2023-04-01T11:09:25;92827.50;;;17.25;42.15
9676;BME280;4876;42.656;23.292;2023-04-01T11:12:14;92822.44;;;17.45;40.64
9676;BME280;4876;42.656;23.292;2023-04-01T11:15:21;92820.47;;;17.56;40.33
9676;BME280;4876;42.656;23.292;2023-04-01T11:21:17;92838.00;;;17.50;40.06
9676;BME280;4876;42.656;23.292;2023-04-01T11:24:00;92840.63;;;17.54;40.77
9676;BME280;4876;42.656;23.292;2023-04-01T11:26:33;92849.06;;;17.38;42.05
9676;BME280;4876;42.656;23.292;2023-04-01T11:32:24;92871.31;;;16.92;43.25
9676;BME280;4876;42.656;23.292;2023-04-01T11:35:18;92872.44;;;16.91;44.66
9676;BME280;4876;42.656;23.292;2023-04-01T11:37:54;92900.16;;;16.76;45.63
9676;BME280;4876;42.656;23.292;2023-04-01T11:40:31;92933.53;;;16.52;48.13
9676;BME280;4876;42.656;23.292;2023-04-01T11:43:08;92965.41;;;16.09;52.74
9676;BME280;4876;42.656;23.292;2023-04-01T11:45:41;92997.81;;;15.59;55.66
9676;BME280;4876;42.656;23.292;2023-04-01T11:48:23;93034.31;;;15.15;60.96
9676;BME280;4876;42.656;23.292;2023-04-01T11:51:02;93079.31;;;14.22;68.60
9676;BME280;4876;42.656;23.292;2023-04-01T11:53:41;93072.19;;;13.29;74.71
9676;BME280;4876;42.656;23.292;2023-04-01T11:56:20;93076.38;;;12.58;78.50
9676;BME280;4876;42.656;23.292;2023-04-01T11:59:17;93085.34;;;12.30;81.50
9676;BME280;4876;42.656;23.292;2023-04-01T12:01:59;93103.25;;;12.21;84.38
9676;BME280;4876;42.656;23.292;2023-04-01T12:05:03;93079.28;;;12.07;89.50
9676;BME280;4876;42.656;23.292;2023-04-01T12:07:50;93077.47;;;12.11;93.05
9676;BME280;4876;42.656;23.292;2023-04-01T12:10:21;93072.75;;;12.20;91.95
9676;BME280;4876;42.656;23.292;2023-04-01T12:12:57;93059.00;;;12.11;94.45
9676;BME280;4876;42.656;23.292;2023-04-01T12:15:31;93057.94;;;12.12;92.64
9676;BME280;4876;42.656;23.292;2023-04-01T12:18:10;93056.38;;;12.30;92.03
9676;BME280;4876;42.656;23.292;2023-04-01T12:20:49;93055.41;;;12.42;91.49
9676;BME280;4876;42.656;23.292;2023-04-01T12:23:40;93054.13;;;12.55;93.01
9676;BME280;4876;42.656;23.292;2023-04-01T12:26:26;93053.28;;;12.74;91.12
9676;BME280;4876;42.656;23.292;2023-04-01T12:29:07;93065.47;;;12.82;89.50
9676;BME280;4876;42.656;23.292;2023-04-01T12:31:49;93061.78;;;12.87;86.81
9676;BME280;4876;42.656;23.292;2023-04-01T12:34:39;93071.31;;;12.72;85.56
9676;BME280;4876;42.656;23.292;2023-04-01T12:37:13;93069.31;;;12.62;82.46
9676;BME280;4876;42.656;23.292;2023-04-01T12:40:10;93070.88;;;12.44;80.85
9676;BME280;4876;42.656;23.292;2023-04-01T12:42:51;93081.56;;;12.51;81.89
9676;BME280;4876;42.656;23.292;2023-04-01T12:45:29;93076.28;;;12.51;83.63
9676;BME280;4876;42.656;23.292;2023-04-01T12:48:20;93067.03;;;12.37;83.74
9676;BME280;4876;42.656;23.292;2023-04-01T12:51:17;93065.84;;;12.58;85.09
9676;BME280;4876;42.656;23.292;2023-04-01T12:54:11;93060.34;;;12.44;85.52
9676;BME280;4876;42.656;23.292;2023-04-01T12:56:49;93052.41;;;12.21;79.97
9676;BME280;4876;42.656;23.292;2023-04-01T12:59:33;93045.69;;;12.23;82.13
9676;BME280;4876;42.656;23.292;2023-04-01T13:02:20;93039.59;;;12.19;81.02
9676;BME280;4876;42.656;23.292;2023-04-01T13:05:09;93041.00;;;12.13;80.94
9676;BME280;4876;42.656;23.292;2023-04-01T13:07:58;93025.97;;;12.36;81.27
9676;BME280;4876;42.656;23.292;2023-04-01T13:10:41;93005.66;;;12.40;79.52
9676;BME280;4876;42.656;23.292;2023-04-01T13:13:47;92969.28;;;12.50;76.03
9676;BME280;4876;42.656;23.292;2023-04-01T13:16:26;92965.38;;;12.93;77.68
9676;BME280;4876;42.656;23.292;2023-04-01T13:19:01;92971.25;;;13.13;75.84
9676;BME280;4876;42.656;23.292;2023-04-01T13:21:44;92977.84;;;13.26;74.09
9676;BME280;4876;42.656;23.292;2023-04-01T13:24:29;92975.66;;;13.32;74.30
9676;BME280;4876;42.656;23.292;2023-04-01T13:27:06;92975.13;;;13.49;71.56
9676;BME280;4876;42.656;23.292;2023-04-01T13:29:38;92989.34;;;13.41;73.96
9676;BME280;4876;42.656;23.292;2023-04-01T13:32:20;92986.47;;;13.53;77.21
9676;BME280;4876;42.656;23.292;2023-04-01T13:35:25;92977.91;;;13.63;79.26
9676;BME280;4876;42.656;23.292;2023-04-01T13:38:08;92964.09;;;13.13;83.04
9676;BME280;4876;42.656;23.292;2023-04-01T13:40:49;92959.31;;;12.92;79.07
9676;BME280;4876;42.656;23.292;2023-04-01T13:43:23;92950.16;;;13.13;76.13
9676;BME280;4876;42.656;23.292;2023-04-01T13:49:16;92917.47;;;13.58;63.87
9676;BME280;4876;42.656;23.292;2023-04-01T13:52:08;92930.28;;;13.97;61.05
9676;BME280;4876;42.656;23.292;2023-04-01T13:55:01;92913.13;;;14.28;59.38
9676;BME280;4876;42.656;23.292;2023-04-01T13:57:52;92941.28;;;14.50;57.72
9676;BME280;4876;42.656;23.292;2023-04-01T14:00:35;92909.69;;;14.75;57.66
9676;BME280;4876;42.656;23.292;2023-04-01T14:03:40;92902.94;;;14.85;56.65
9676;BME280;4876;42.656;23.292;2023-04-01T14:06:17;92890.06;;;14.84;56.34
9676;BME280;4876;42.656;23.292;2023-04-01T14:09:03;92892.31;;;14.74;55.58
9676;BME280;4876;42.656;23.292;2023-04-01T14:11:39;92890.72;;;14.63;57.15
9676;BME280;4876;42.656;23.292;2023-04-01T14:14:18;92902.84;;;14.71;56.02
9676;BME280;4876;42.656;23.292;2023-04-01T14:17:04;92885.41;;;14.56;54.94
9676;BME280;4876;42.656;23.292;2023-04-01T14:19:49;92892.97;;;14.53;55.50
9676;BME280;4876;42.656;23.292;2023-04-01T14:22:28;92882.38;;;14.57;55.32
9676;BME280;4876;42.656;23.292;2023-04-01T14:25:21;92873.38;;;14.69;54.99
9676;BME280;4876;42.656;23.292;2023-04-01T14:27:58;92849.94;;;14.67;53.99
9676;BME280;4876;42.656;23.292;2023-04-01T14:30:46;92852.19;;;14.62;55.08
9676;BME280;4876;42.656;23.292;2023-04-01T14:33:37;92849.22;;;14.77;54.43
9676;BME280;4876;42.656;23.292;2023-04-01T14:36:32;92855.25;;;14.74;54.70
9676;BME280;4876;42.656;23.292;2023-04-01T14:39:15;92856.50;;;14.98;53.52
9676;BME280;4876;42.656;23.292;2023-04-01T14:41:51;92844.06;;;15.10;52.42
9676;BME280;4876;42.656;23.292;2023-04-01T14:44:50;92862.25;;;15.29;51.12
9676;BME280;4876;42.656;23.292;2023-04-01T14:47:46;92859.59;;;15.29;51.07